createdAt,value
2018-02-22T00:00:19.256Z,0.70
2018-02-22T00:02:46.728Z,0.70
2018-02-22T00:05:14.190Z,0.70
2018-02-22T00:07:42.435Z,0.80
2018-02-22T00:10:09.930Z,0.80
2018-02-22T00:12:37.426Z,0.80
2018-02-22T00:15:04.930Z,0.90
2018-02-22T00:17:32.442Z,0.90
2018-02-22T00:19:59.931Z,0.90
2018-02-22T00:22:29.429Z,0.90
2018-02-22T00:24:56.925Z,0.90
2018-02-22T00:27:24.402Z,0.80
2018-02-22T00:29:51.865Z,0.80
2018-02-22T00:32:19.339Z,0.80
2018-02-22T00:34:46.822Z,0.80
2018-02-22T00:37:14.281Z,0.80
2018-02-22T00:39:41.762Z,0.70
2018-02-22T00:42:09.240Z,0.70
2018-02-22T00:44:37.247Z,0.70
2018-02-22T00:47:04.779Z,0.70
2018-02-22T00:49:32.300Z,0.70
2018-02-22T00:52:00.014Z,0.60
2018-02-22T00:54:27.569Z,0.60
2018-02-22T00:56:55.079Z,0.60
2018-02-22T00:59:22.585Z,0.50
2018-02-22T01:01:50.093Z,0.50
2018-02-22T01:04:18.370Z,0.60
2018-02-22T01:06:45.876Z,0.50
2018-02-22T01:09:13.524Z,0.60
2018-02-22T01:11:41.109Z,0.60
2018-02-22T01:14:08.623Z,0.60
2018-02-22T01:16:36.214Z,0.60
2018-02-22T01:19:03.771Z,0.60
2018-02-22T01:21:31.305Z,0.70
2018-02-22T01:23:59.030Z,0.70
2018-02-22T01:26:26.642Z,0.80
2018-02-22T01:28:54.169Z,0.80
2018-02-22T01:31:22.572Z,0.80
2018-02-22T01:33:50.141Z,0.80
2018-02-22T01:36:17.673Z,0.80
2018-02-22T01:38:45.199Z,0.80
2018-02-22T01:41:12.677Z,0.90
2018-02-22T01:43:40.210Z,0.90
2018-02-22T01:46:07.734Z,0.90
2018-02-22T01:48:35.282Z,0.90
2018-02-22T01:51:03.430Z,0.80
2018-02-22T01:53:31.657Z,0.80
2018-02-22T01:55:59.173Z,0.80
2018-02-22T01:58:26.664Z,0.80
2018-02-22T02:00:54.194Z,0.80
2018-02-22T02:03:21.683Z,0.80
2018-02-22T02:05:49.205Z,0.80
2018-02-22T02:08:17.445Z,0.90
2018-02-22T02:10:44.939Z,0.90
2018-02-22T02:13:12.499Z,1.00
2018-02-22T02:15:40.786Z,1.10
2018-02-22T02:18:08.290Z,1.10
2018-02-22T02:20:35.755Z,1.20
2018-02-22T02:23:03.253Z,1.20
2018-02-22T02:25:30.752Z,1.20
2018-02-22T02:28:14.683Z,1.30
2018-02-22T02:30:42.182Z,1.30
2018-02-22T02:33:09.808Z,1.30
2018-02-22T02:35:37.262Z,1.30
2018-02-22T02:38:04.766Z,1.30
2018-02-22T02:40:33.015Z,1.20
2018-02-22T02:43:00.508Z,1.20
2018-02-22T02:45:28.758Z,1.10
2018-02-22T02:47:56.275Z,1.10
2018-02-22T02:50:23.790Z,1.10
2018-02-22T02:52:51.312Z,1.20
2018-02-22T02:55:18.805Z,1.20
2018-02-22T02:57:47.070Z,1.20
2018-02-22T03:00:14.588Z,1.20
2018-02-22T03:02:42.089Z,1.30
2018-02-22T03:05:09.567Z,1.30
2018-02-22T03:07:37.031Z,1.30
2018-02-22T03:10:04.490Z,1.30
2018-02-22T03:12:31.993Z,1.30
2018-02-22T03:14:59.523Z,1.30
2018-02-22T03:17:27.000Z,1.30
2018-02-22T03:19:54.544Z,1.40
2018-02-22T03:22:22.030Z,1.40
2018-02-22T03:24:49.518Z,1.50
2018-02-22T03:27:17.020Z,1.50
2018-02-22T03:29:44.532Z,1.50
2018-02-22T03:32:12.876Z,1.60
2018-02-22T03:34:40.463Z,1.60
2018-02-22T03:37:08.756Z,1.70
2018-02-22T03:39:36.262Z,1.60
2018-02-22T03:42:03.758Z,1.60
2018-02-22T03:44:31.996Z,1.70
2018-02-22T03:46:59.495Z,1.60
2018-02-22T03:49:26.974Z,1.70
2018-02-22T03:51:54.469Z,1.70
2018-02-22T03:54:21.982Z,1.80
2018-02-22T03:56:49.518Z,1.80
2018-02-22T03:59:17.023Z,1.80
2018-02-22T04:01:44.686Z,1.80
2018-02-22T04:04:12.900Z,1.90
2018-02-22T04:06:40.385Z,1.90
2018-02-22T04:09:07.861Z,1.90
2018-02-22T04:11:35.360Z,1.90
2018-02-22T04:14:02.833Z,1.90
2018-02-22T04:16:30.323Z,1.90
2018-02-22T04:18:57.823Z,1.80
2018-02-22T04:21:25.315Z,1.70
2018-02-22T04:23:52.825Z,1.70
2018-02-22T04:26:20.331Z,1.70
2018-02-22T04:28:47.807Z,1.70
2018-02-22T04:31:16.075Z,1.60
2018-02-22T04:33:43.554Z,1.60
2018-02-22T04:36:11.141Z,1.50
2018-02-22T04:38:38.619Z,1.40
2018-02-22T04:41:06.114Z,1.50
2018-02-22T04:43:33.613Z,1.50
2018-02-22T04:46:01.096Z,1.60
2018-02-22T04:48:28.579Z,1.60
2018-02-22T04:50:56.826Z,1.70
2018-02-22T04:53:24.346Z,1.70
2018-02-22T04:55:51.874Z,1.70
2018-02-22T04:58:19.422Z,1.70
2018-02-22T05:00:47.701Z,1.80
2018-02-22T05:03:15.185Z,1.80
2018-02-22T05:05:42.647Z,1.90
2018-02-22T05:08:10.137Z,1.80
2018-02-22T05:10:37.604Z,1.50
2018-02-22T05:13:05.058Z,1.30
2018-02-22T05:15:32.514Z,1.40
2018-02-22T05:18:00.009Z,1.30
2018-02-22T05:20:27.518Z,1.20
2018-02-22T05:22:55.017Z,1.00
2018-02-22T05:25:22.462Z,0.80
2018-02-22T05:27:49.931Z,0.80
2018-02-22T05:30:18.210Z,0.90
2018-02-22T05:32:46.441Z,0.80
2018-02-22T05:35:14.001Z,0.80
2018-02-22T05:37:42.297Z,0.80
2018-02-22T05:40:09.794Z,0.80
2018-02-22T05:42:37.282Z,0.70
2018-02-22T05:45:04.762Z,0.80
2018-02-22T05:47:32.249Z,0.90
2018-02-22T05:49:59.730Z,1.00
2018-02-22T05:52:27.221Z,0.90
2018-02-22T05:54:54.695Z,1.00
2018-02-22T05:57:22.190Z,1.00
2018-02-22T05:59:49.797Z,1.10
2018-02-22T06:02:17.296Z,1.20
2018-02-22T06:04:44.767Z,1.30
2018-02-22T06:07:12.254Z,1.20
2018-02-22T06:09:39.717Z,1.20
2018-02-22T06:12:07.182Z,1.30
2018-02-22T06:14:34.661Z,1.40
2018-02-22T06:17:02.140Z,1.50
2018-02-22T06:19:30.390Z,1.40
2018-02-22T06:21:57.857Z,1.40
2018-02-22T06:24:25.309Z,1.40
2018-02-22T06:26:52.777Z,1.40
2018-02-22T06:29:20.244Z,1.40
2018-02-22T06:31:48.473Z,1.30
2018-02-22T06:34:15.985Z,1.30
2018-02-22T06:36:44.263Z,1.20
2018-02-22T06:39:11.764Z,1.20
2018-02-22T06:41:39.229Z,1.30
2018-02-22T06:44:06.702Z,1.20
2018-02-22T06:46:34.192Z,1.20
2018-02-22T06:49:01.665Z,1.10
2018-02-22T06:51:29.118Z,1.10
2018-02-22T06:53:56.587Z,1.20
2018-02-22T06:56:24.078Z,1.10
2018-02-22T06:58:51.570Z,1.00
2018-02-22T07:01:19.094Z,1.00
2018-02-22T07:03:47.567Z,1.10
2018-02-22T07:06:15.021Z,1.20
2018-02-22T07:08:42.505Z,1.30
2018-02-22T07:11:09.990Z,1.30
2018-02-22T07:13:38.222Z,1.20
2018-02-22T07:16:05.708Z,1.10
2018-02-22T07:18:33.962Z,1.30
2018-02-22T07:21:01.432Z,1.30
2018-02-22T07:23:29.101Z,1.50
2018-02-22T07:25:57.329Z,1.60
2018-02-22T07:28:24.819Z,1.60
2018-02-22T07:30:52.288Z,1.60
2018-02-22T07:33:20.637Z,1.60
2018-02-22T07:35:48.123Z,1.60
2018-02-22T07:38:16.377Z,1.80
2018-02-22T07:40:43.875Z,1.80
2018-02-22T07:43:11.681Z,1.90
2018-02-22T07:45:39.158Z,2.00
2018-02-22T07:48:07.488Z,1.90
2018-02-22T07:50:35.134Z,1.90
2018-02-22T07:53:02.593Z,2.00
2018-02-22T07:55:30.945Z,2.00
2018-02-22T07:57:58.411Z,2.00
2018-02-22T08:00:25.878Z,2.10
2018-02-22T08:02:53.381Z,2.20
2018-02-22T08:05:20.863Z,2.20
2018-02-22T08:07:48.340Z,2.30
2018-02-22T08:10:15.800Z,2.40
2018-02-22T08:12:44.137Z,2.30
2018-02-22T08:15:11.714Z,2.30
2018-02-22T08:17:39.195Z,2.30
2018-02-22T08:20:06.688Z,2.40
2018-02-22T08:22:34.167Z,2.50
2018-02-22T08:25:01.715Z,2.60
2018-02-22T08:27:29.194Z,2.70
2018-02-22T08:29:56.662Z,2.90
2018-02-22T08:32:24.178Z,3.00
2018-02-22T08:34:51.654Z,3.10
2018-02-22T08:37:19.149Z,3.20
2018-02-22T08:39:46.695Z,3.20
2018-02-22T08:42:14.194Z,3.20
2018-02-22T08:44:41.717Z,3.20
2018-02-22T08:47:09.175Z,3.20
2018-02-22T08:49:36.645Z,3.20
2018-02-22T08:52:04.952Z,3.30
2018-02-22T08:54:32.425Z,3.30
2018-02-22T08:56:59.889Z,3.40
2018-02-22T08:59:27.380Z,3.50
2018-02-22T09:01:54.848Z,3.60
2018-02-22T09:04:23.110Z,3.70
2018-02-22T09:06:50.577Z,3.70
2018-02-22T09:09:18.841Z,3.80
2018-02-22T09:11:46.293Z,3.80
2018-02-22T09:14:13.757Z,3.90
2018-02-22T09:16:41.220Z,3.90
2018-02-22T09:19:09.474Z,3.90
2018-02-22T09:21:36.951Z,3.80
2018-02-22T09:24:04.440Z,3.90
2018-02-22T09:26:31.919Z,3.90
2018-02-22T09:28:59.401Z,3.90
2018-02-22T09:31:26.901Z,3.90
2018-02-22T09:33:54.382Z,4.00
2018-02-22T09:36:22.490Z,4.00
2018-02-22T09:38:49.954Z,4.10
2018-02-22T09:41:17.425Z,4.20
2018-02-22T09:43:45.662Z,4.50
2018-02-22T09:46:13.143Z,4.40
2018-02-22T09:48:40.618Z,4.50
2018-02-22T09:51:08.849Z,4.60
2018-02-22T09:53:36.330Z,4.60
2018-02-22T09:56:03.802Z,4.70
2018-02-22T09:58:31.290Z,4.80
2018-02-22T10:00:58.811Z,4.80
2018-02-22T10:03:26.291Z,4.80
2018-02-22T10:05:53.898Z,5.00
2018-02-22T10:08:21.424Z,5.10
2018-02-22T10:10:48.957Z,5.20
2018-02-22T10:13:16.498Z,5.10
2018-02-22T10:15:44.093Z,5.20
2018-02-22T10:18:11.647Z,5.20
2018-02-22T10:20:39.178Z,5.20
2018-02-22T10:23:06.666Z,5.20
2018-02-22T10:25:34.913Z,5.30
2018-02-22T10:28:03.294Z,5.50
2018-02-22T10:30:30.781Z,5.50
2018-02-22T10:32:58.269Z,5.50
2018-02-22T10:35:26.261Z,5.60
2018-02-22T10:37:53.759Z,5.60
2018-02-22T10:40:22.050Z,5.60
2018-02-22T10:42:49.529Z,5.60
2018-02-22T10:45:17.023Z,5.50
2018-02-22T10:47:44.598Z,5.50
2018-02-22T10:50:12.323Z,5.60
2018-02-22T10:52:39.821Z,5.60
2018-02-22T10:55:08.078Z,5.60
2018-02-22T10:57:35.542Z,5.60
2018-02-22T11:00:03.839Z,5.70
2018-02-22T11:02:37.637Z,5.60
2018-02-22T11:05:05.880Z,5.50
2018-02-22T11:07:33.358Z,5.50
2018-02-22T11:10:00.833Z,5.50
2018-02-22T11:12:29.063Z,5.70
2018-02-22T11:14:56.538Z,5.70
2018-02-22T11:17:24.040Z,5.80
2018-02-22T11:19:51.552Z,5.90
2018-02-22T11:22:19.066Z,6.00
2018-02-22T11:24:46.549Z,6.00
2018-02-22T11:27:14.073Z,6.10
2018-02-22T11:29:41.570Z,6.20
2018-02-22T11:32:09.049Z,6.30
2018-02-22T11:34:36.554Z,6.30
2018-02-22T11:37:04.045Z,6.40
2018-02-22T11:39:31.587Z,6.40
2018-02-22T11:41:59.191Z,6.50
2018-02-22T11:44:27.482Z,6.50
2018-02-22T11:46:54.975Z,6.50
2018-02-22T11:49:22.556Z,6.60
2018-02-22T11:51:50.050Z,6.70
2018-02-22T11:54:17.549Z,6.50
2018-02-22T11:56:45.061Z,6.40
2018-02-22T11:59:12.628Z,6.30
2018-02-22T12:01:40.156Z,6.30
2018-02-22T12:04:07.617Z,6.30
2018-02-22T12:06:35.097Z,6.40
2018-02-22T12:09:03.374Z,6.50
2018-02-22T12:11:30.830Z,6.50
2018-02-22T12:13:58.297Z,6.40
2018-02-22T12:16:25.794Z,6.40
2018-02-22T12:18:53.308Z,6.40
2018-02-22T12:21:20.777Z,6.20
2018-02-22T12:23:48.390Z,6.10
2018-02-22T12:26:15.943Z,6.00
2018-02-22T12:28:43.424Z,5.90
2018-02-22T12:31:10.897Z,5.60
2018-02-22T12:33:38.590Z,5.60
2018-02-22T12:36:06.086Z,5.50
2018-02-22T12:38:33.569Z,5.50
2018-02-22T12:41:01.045Z,5.40
2018-02-22T12:43:28.534Z,5.20
2018-02-22T12:45:56.006Z,5.00
2018-02-22T12:48:23.562Z,4.90
2018-02-22T12:50:51.034Z,4.90
2018-02-22T12:53:18.521Z,4.90
2018-02-22T12:55:46.772Z,4.70
2018-02-22T12:58:14.242Z,4.70
2018-02-22T13:00:41.698Z,4.70
2018-02-22T13:03:09.215Z,4.80
2018-02-22T13:05:36.758Z,4.80
2018-02-22T13:08:06.847Z,4.80
2018-02-22T13:10:34.330Z,4.60
2018-02-22T13:13:01.814Z,4.40
2018-02-22T13:15:29.292Z,4.60
2018-02-22T13:17:56.786Z,4.70
2018-02-22T13:20:24.267Z,4.70
2018-02-22T13:22:51.773Z,4.70
2018-02-22T13:25:19.277Z,4.50
2018-02-22T13:27:46.780Z,4.50
2018-02-22T13:30:14.249Z,4.40
2018-02-22T13:32:53.456Z,4.30
2018-02-22T13:35:20.997Z,4.40
2018-02-22T13:40:53.946Z,4.40
2018-02-22T13:43:22.196Z,4.40
2018-02-22T13:45:49.681Z,4.40
2018-02-22T13:48:17.958Z,4.40
2018-02-22T13:50:56.993Z,4.40
2018-02-22T13:53:24.462Z,4.30
2018-02-22T13:55:51.951Z,4.10
2018-02-22T13:58:19.417Z,4.10
2018-02-22T14:00:58.676Z,4.30
2018-02-22T14:03:26.146Z,4.30
2018-02-22T14:05:54.397Z,4.60
2018-02-22T14:08:33.682Z,4.60
2018-02-22T14:11:01.181Z,4.50
2018-02-22T14:13:28.650Z,4.60
2018-02-22T14:15:56.147Z,4.70
2018-02-22T14:18:23.645Z,4.80
2018-02-22T14:20:51.114Z,4.80
2018-02-22T14:23:18.578Z,4.70
2018-02-22T14:25:46.049Z,4.60
2018-02-22T14:28:13.530Z,4.50
2018-02-22T14:30:41.779Z,4.30
2018-02-22T14:33:09.254Z,4.30
2018-02-22T14:35:36.745Z,4.30
2018-02-22T14:38:04.222Z,4.20
2018-02-22T14:40:31.719Z,4.10
2018-02-22T14:43:00.023Z,4.10
2018-02-22T14:45:27.489Z,4.00
2018-02-22T14:47:54.962Z,3.90
2018-02-22T14:50:22.434Z,3.90
2018-02-22T14:52:49.944Z,4.00
2018-02-22T14:55:17.413Z,4.00
2018-02-22T14:57:44.910Z,3.90
2018-02-22T15:00:12.402Z,3.90
2018-02-22T15:02:40.638Z,4.00
2018-02-22T15:05:08.114Z,3.90
2018-02-22T15:07:35.576Z,4.00
2018-02-22T15:10:03.104Z,3.90
2018-02-22T15:12:30.590Z,4.10
2018-02-22T15:14:58.077Z,4.10
2018-02-22T15:17:25.596Z,4.10
2018-02-22T15:19:53.087Z,3.90
2018-02-22T15:22:20.579Z,3.80
2018-02-22T15:24:48.093Z,3.90
2018-02-22T15:27:15.567Z,3.90
2018-02-22T15:29:43.060Z,3.90
2018-02-22T15:32:10.590Z,3.90
2018-02-22T15:34:38.077Z,3.80
2018-02-22T15:37:05.547Z,3.70
2018-02-22T15:39:33.023Z,3.70
2018-02-22T15:42:00.518Z,3.60
2018-02-22T15:44:28.000Z,3.60
2018-02-22T15:46:55.477Z,3.40
2018-02-22T15:49:22.961Z,3.30
2018-02-22T15:51:50.437Z,3.20
2018-02-22T15:54:17.978Z,3.30
2018-02-22T15:56:45.456Z,3.50
2018-02-22T15:59:12.969Z,3.50
2018-02-22T16:01:40.475Z,3.30
2018-02-22T16:04:08.029Z,3.40
2018-02-22T16:06:35.494Z,3.40
2018-02-22T16:09:02.991Z,3.30
2018-02-22T16:11:30.479Z,3.40
2018-02-22T16:13:57.956Z,3.40
2018-02-22T16:16:25.422Z,3.40
2018-02-22T16:18:52.916Z,3.40
2018-02-22T16:21:20.481Z,3.30
2018-02-22T16:23:47.973Z,3.20
2018-02-22T16:26:16.210Z,3.40
2018-02-22T16:28:43.718Z,3.40
2018-02-22T16:31:11.194Z,3.30
2018-02-22T16:33:38.705Z,3.40
2018-02-22T16:36:06.207Z,3.40
2018-02-22T16:38:33.677Z,3.40
2018-02-22T16:41:01.142Z,3.30
2018-02-22T16:43:28.614Z,3.30
2018-02-22T16:45:56.130Z,3.20
2018-02-22T16:48:23.739Z,3.20
2018-02-22T16:50:51.250Z,3.20
2018-02-22T16:53:18.727Z,3.20
2018-02-22T16:55:46.215Z,3.20
2018-02-22T16:58:13.679Z,3.10
2018-02-22T17:00:41.190Z,3.00
2018-02-22T17:03:08.633Z,3.00
2018-02-22T17:05:36.110Z,3.10
2018-02-22T17:08:03.643Z,3.20
2018-02-22T17:10:31.171Z,3.20
2018-02-22T17:12:58.666Z,3.10
2018-02-22T17:15:26.897Z,2.90
2018-02-22T17:17:54.359Z,2.90
2018-02-22T17:20:21.844Z,2.80
2018-02-22T17:22:50.081Z,2.70
2018-02-22T17:25:17.054Z,2.70
2018-02-22T17:27:51.186Z,2.60
2018-02-22T17:30:24.365Z,2.60
2018-02-22T17:32:52.637Z,2.40
2018-02-22T17:38:34.757Z,2.30
2018-02-22T17:41:06.773Z,2.20
2018-02-22T17:43:34.248Z,2.20
2018-02-22T17:46:01.711Z,2.20
2018-02-22T17:48:29.173Z,2.10
2018-02-22T17:50:56.647Z,2.00
2018-02-22T17:53:24.892Z,1.80
2018-02-22T17:55:52.393Z,1.80
2018-02-22T17:58:20.480Z,1.70
2018-02-22T18:00:47.994Z,1.70
2018-02-22T18:03:15.502Z,1.70
2018-02-22T18:05:44.710Z,1.60
2018-02-22T18:08:12.252Z,1.50
2018-02-22T18:10:39.806Z,1.50
2018-02-22T18:13:07.341Z,1.50
2018-02-22T18:15:35.686Z,1.50
2018-02-22T18:18:03.329Z,1.50
2018-02-22T18:20:30.836Z,1.60
2018-02-22T18:22:59.135Z,1.70
2018-02-22T18:25:26.630Z,1.70
2018-02-22T18:27:54.134Z,1.60
2018-02-22T18:30:21.668Z,1.60
2018-02-22T18:32:49.135Z,1.40
2018-02-22T18:35:16.601Z,1.40
2018-02-22T18:37:50.372Z,1.30
2018-02-22T18:40:23.563Z,1.30
2018-02-22T18:42:51.046Z,1.30
2018-02-22T18:45:18.538Z,1.20
2018-02-22T18:47:46.062Z,1.10
2018-02-22T18:50:13.534Z,1.10
2018-02-22T18:52:41.005Z,1.00
2018-02-22T18:55:08.563Z,0.90
2018-02-22T18:57:36.121Z,0.90
2018-02-22T19:00:04.384Z,0.70
2018-02-22T19:02:32.640Z,0.80
2018-02-22T19:05:00.115Z,0.80
2018-02-22T19:07:28.399Z,0.70
2018-02-22T19:09:55.879Z,0.70
2018-02-22T19:12:23.394Z,0.70
2018-02-22T19:14:50.945Z,0.80
2018-02-22T19:17:18.474Z,0.90
2018-02-22T19:19:45.994Z,1.00
2018-02-22T19:22:13.465Z,1.00
2018-02-22T19:24:40.961Z,1.00
2018-02-22T19:27:08.492Z,1.00
2018-02-22T19:29:35.944Z,1.00
2018-02-22T19:32:03.461Z,1.10
2018-02-22T19:34:31.068Z,1.20
2018-02-22T19:36:59.820Z,1.30
2018-02-22T19:39:28.732Z,1.40
2018-02-22T19:42:09.903Z,1.40
2018-02-22T19:44:38.092Z,1.30
2018-02-22T19:47:05.793Z,1.30
2018-02-22T19:49:34.304Z,1.30
2018-02-22T19:52:01.821Z,1.30
2018-02-22T19:54:29.340Z,1.30
2018-02-22T19:56:56.897Z,1.20
2018-02-22T19:59:24.514Z,1.00
2018-02-22T20:01:52.186Z,1.00
2018-02-22T20:04:20.438Z,0.90
2018-02-22T20:06:58.949Z,0.80
2018-02-22T20:09:26.506Z,0.80
2018-02-22T20:15:13.665Z,0.90
2018-02-22T20:17:41.404Z,1.10
2018-02-22T20:20:08.991Z,1.10
2018-02-22T20:22:36.536Z,1.00
2018-02-22T20:25:04.035Z,1.00
2018-02-22T20:27:32.325Z,1.00
2018-02-22T20:29:59.839Z,1.00
2018-02-22T20:32:32.473Z,1.10
2018-02-22T20:35:01.958Z,1.10
2018-02-22T20:37:29.600Z,1.30
2018-02-22T20:40:00.263Z,1.30
2018-02-22T20:42:27.769Z,1.30
2018-02-22T20:44:55.313Z,1.40
2018-02-22T20:47:22.822Z,1.50
2018-02-22T20:49:50.285Z,1.40
2018-02-22T20:52:18.696Z,1.50
2018-02-22T20:54:57.061Z,1.60
2018-02-22T20:57:24.587Z,1.50
2018-02-22T20:59:53.067Z,1.40
2018-02-22T21:02:20.806Z,1.40
2018-02-22T21:04:48.323Z,1.30
2018-02-22T21:07:17.907Z,1.20
2018-02-22T21:09:45.509Z,1.10
2018-02-22T21:12:13.012Z,1.10
2018-02-22T21:14:42.972Z,1.10
2018-02-22T21:17:17.063Z,1.00
2018-02-22T21:19:44.674Z,1.00
2018-02-22T21:22:12.545Z,1.10
2018-02-22T21:24:40.134Z,1.10
2018-02-22T21:27:09.755Z,1.20
2018-02-22T21:29:37.529Z,1.10
2018-02-22T21:32:05.051Z,1.20
2018-02-22T21:34:32.657Z,1.20
2018-02-22T21:37:01.202Z,1.20
2018-02-22T21:39:28.688Z,1.20
2018-02-22T21:41:57.197Z,1.20
2018-02-22T21:44:24.680Z,1.20
2018-02-22T21:46:52.147Z,1.20
2018-02-22T21:49:19.604Z,1.20
2018-02-22T21:51:47.953Z,1.20
2018-02-22T21:54:16.551Z,1.40
2018-02-22T21:56:48.900Z,1.40
2018-02-22T21:59:16.542Z,1.40
2018-02-22T22:01:57.733Z,1.40
2018-02-22T22:04:25.274Z,1.20
2018-02-22T22:06:52.823Z,1.20
2018-02-22T22:09:20.547Z,1.20
2018-02-22T22:11:48.104Z,1.20
2018-02-22T22:14:15.880Z,1.30
2018-02-22T22:16:49.418Z,1.30
2018-02-22T22:19:18.618Z,1.20
2018-02-22T22:24:30.279Z,1.20
2018-02-22T22:26:57.928Z,1.30
2018-02-22T22:29:25.468Z,1.30
2018-02-22T22:31:52.958Z,1.30
2018-02-22T22:34:20.478Z,1.30
2018-02-22T22:36:48.070Z,1.20
2018-02-22T22:39:15.570Z,1.20
2018-02-22T22:41:44.022Z,1.20
2018-02-22T22:44:11.525Z,1.10
2018-02-22T22:46:39.048Z,1.10
2018-02-22T22:49:06.525Z,1.10
2018-02-22T22:51:34.007Z,1.10
2018-02-22T22:54:02.413Z,1.10
2018-02-22T22:56:30.916Z,1.00
2018-02-22T22:59:00.201Z,1.20
2018-02-22T23:01:32.319Z,1.20
2018-02-22T23:04:00.023Z,1.30
2018-02-22T23:06:27.580Z,1.30
2018-02-22T23:08:55.102Z,1.20
2018-02-22T23:11:22.772Z,1.30
2018-02-22T23:13:50.419Z,1.20
2018-02-22T23:16:17.951Z,1.20
2018-02-22T23:18:45.641Z,1.20
2018-02-22T23:21:13.324Z,1.20
2018-02-22T23:31:02.252Z,1.10
2018-02-22T23:33:29.762Z,1.20
2018-02-22T23:35:58.032Z,1.10
2018-02-22T23:38:26.444Z,1.20
